createdAt,value
2023-10-26T00:02:18.768Z,10.05
2023-10-26T00:04:45.940Z,10.05
2023-10-26T00:07:13.287Z,10.02
2023-10-26T00:09:40.307Z,10.00
2023-10-26T00:12:07.944Z,10.00
2023-10-26T00:14:35.099Z,10.02
2023-10-26T00:17:02.120Z,9.98
2023-10-26T00:19:29.147Z,9.97
2023-10-26T00:21:56.185Z,9.99
2023-10-26T00:24:23.184Z,9.97
2023-10-26T00:26:50.675Z,9.83
2023-10-26T00:29:17.982Z,9.89
2023-10-26T00:31:45.869Z,9.92
2023-10-26T00:34:12.867Z,9.93
2023-10-26T00:36:39.856Z,9.90
2023-10-26T00:39:06.933Z,9.89
2023-10-26T00:41:34.005Z,9.89
2023-10-26T00:44:01.388Z,9.84
2023-10-26T00:46:28.392Z,9.83
2023-10-26T00:48:55.531Z,9.86
2023-10-26T00:51:23.704Z,9.86
2023-10-26T00:53:51.182Z,9.82
2023-10-26T00:56:20.883Z,9.74
2023-10-26T00:58:49.298Z,9.81
2023-10-26T01:01:16.891Z,9.82
2023-10-26T01:03:47.617Z,9.76
2023-10-26T01:06:14.593Z,9.78
2023-10-26T01:08:41.821Z,9.75
2023-10-26T01:11:09.094Z,9.86
2023-10-26T01:13:36.985Z,9.86
2023-10-26T01:16:05.947Z,9.82
2023-10-26T01:18:33.241Z,9.76
2023-10-26T01:21:00.464Z,9.82
2023-10-26T01:23:27.846Z,9.80
2023-10-26T01:25:57.230Z,9.79
2023-10-26T01:28:24.935Z,9.74
2023-10-26T01:30:52.869Z,9.78
2023-10-26T01:33:21.314Z,9.76
2023-10-26T01:35:48.660Z,9.82
2023-10-26T01:38:16.420Z,9.82
2023-10-26T01:40:43.814Z,9.78
2023-10-26T01:43:10.864Z,9.80
2023-10-26T01:45:37.864Z,9.70
2023-10-26T01:48:05.816Z,9.78
2023-10-26T01:50:33.535Z,9.80
2023-10-26T01:53:00.558Z,9.79
2023-10-26T01:55:27.572Z,9.78
2023-10-26T01:57:54.713Z,9.80
2023-10-26T02:00:22.419Z,9.73
2023-10-26T02:02:51.184Z,9.79
2023-10-26T02:05:18.348Z,9.71
2023-10-26T02:07:45.456Z,9.67
2023-10-26T02:10:15.968Z,9.66
2023-10-26T02:12:43.025Z,9.62
2023-10-26T02:15:11.179Z,9.67
2023-10-26T02:17:38.660Z,9.63
2023-10-26T02:20:06.549Z,9.61
2023-10-26T02:22:33.544Z,9.56
2023-10-26T02:25:00.595Z,9.55
2023-10-26T02:27:27.634Z,9.53
2023-10-26T02:29:54.661Z,9.49
2023-10-26T02:32:21.663Z,9.53
2023-10-26T02:34:48.712Z,9.43
2023-10-26T02:37:16.730Z,9.42
2023-10-26T02:39:43.704Z,9.44
2023-10-26T02:42:10.734Z,9.43
2023-10-26T02:44:38.102Z,9.42
2023-10-26T02:47:05.339Z,9.42
2023-10-26T02:49:32.505Z,9.42
2023-10-26T02:51:59.483Z,9.33
2023-10-26T02:54:29.589Z,9.34
2023-10-26T02:56:56.717Z,9.32
2023-10-26T02:59:23.867Z,9.32
2023-10-26T03:01:51.041Z,9.30
2023-10-26T03:04:18.102Z,9.28
2023-10-26T03:06:45.192Z,9.24
2023-10-26T03:09:14.884Z,9.23
2023-10-26T03:11:42.797Z,9.21
2023-10-26T03:14:09.812Z,9.08
2023-10-26T03:16:39.087Z,9.14
2023-10-26T03:19:06.411Z,9.09
2023-10-26T03:21:35.017Z,9.11
2023-10-26T03:24:02.390Z,9.08
2023-10-26T03:26:29.522Z,9.05
2023-10-26T03:28:56.570Z,9.01
2023-10-26T03:31:23.561Z,9.01
2023-10-26T03:33:50.815Z,8.96
2023-10-26T03:36:20.487Z,8.99
2023-10-26T03:38:48.479Z,8.93
2023-10-26T03:41:15.568Z,8.96
2023-10-26T03:43:42.541Z,8.97
2023-10-26T03:46:11.962Z,8.97
2023-10-26T03:48:39.101Z,8.95
2023-10-26T03:51:06.252Z,8.98
2023-10-26T03:53:34.322Z,9.00
2023-10-26T03:56:03.286Z,8.99
2023-10-26T03:58:30.310Z,8.99
2023-10-26T04:00:59.389Z,8.98
2023-10-26T04:03:26.647Z,9.03
2023-10-26T04:05:54.587Z,9.03
2023-10-26T04:08:21.606Z,9.03
2023-10-26T04:10:49.452Z,9.05
2023-10-26T04:13:16.408Z,9.07
2023-10-26T04:15:43.504Z,9.05
2023-10-26T04:18:10.607Z,9.10
2023-10-26T04:20:37.676Z,9.11
2023-10-26T04:23:05.249Z,9.13
2023-10-26T04:25:50.552Z,9.14
2023-10-26T04:28:19.664Z,9.19
2023-10-26T04:30:50.777Z,9.18
2023-10-26T04:33:19.301Z,9.22
2023-10-26T04:35:48.179Z,9.22
2023-10-26T04:38:15.150Z,9.19
2023-10-26T04:40:44.403Z,9.24
2023-10-26T04:43:11.465Z,9.22
2023-10-26T04:45:38.709Z,9.20
2023-10-26T04:48:05.920Z,9.16
2023-10-26T04:50:33.543Z,9.15
2023-10-26T04:53:03.642Z,9.16
2023-10-26T04:55:35.405Z,9.19
2023-10-26T04:58:03.368Z,9.18
2023-10-26T05:00:31.364Z,9.21
2023-10-26T05:02:58.704Z,9.24
2023-10-26T05:05:26.561Z,9.29
2023-10-26T05:07:54.138Z,9.23
2023-10-26T05:10:21.848Z,9.32
2023-10-26T05:12:48.975Z,9.33
2023-10-26T05:15:16.082Z,9.34
2023-10-26T05:17:43.228Z,9.33
2023-10-26T05:20:11.062Z,9.30
2023-10-26T05:22:38.631Z,9.30
2023-10-26T05:25:06.369Z,9.34
2023-10-26T05:27:37.119Z,9.34
2023-10-26T05:30:06.737Z,9.35
2023-10-26T05:32:34.124Z,9.40
2023-10-26T05:35:01.234Z,9.43
2023-10-26T05:37:28.309Z,9.42
2023-10-26T05:39:55.350Z,9.45
2023-10-26T05:42:22.426Z,9.43
2023-10-26T05:44:49.512Z,9.42
2023-10-26T05:47:21.786Z,9.41
2023-10-26T05:49:49.441Z,9.43
2023-10-26T05:52:16.985Z,9.44
2023-10-26T05:54:44.159Z,9.47
2023-10-26T05:57:11.335Z,9.49
2023-10-26T05:59:38.341Z,9.53
2023-10-26T06:02:05.843Z,9.53
2023-10-26T06:04:33.268Z,9.52
2023-10-26T06:07:01.308Z,9.59
2023-10-26T06:09:28.563Z,9.60
2023-10-26T06:11:55.565Z,9.68
2023-10-26T06:14:22.556Z,9.69
2023-10-26T06:16:49.585Z,9.75
2023-10-26T06:19:16.680Z,9.75
2023-10-26T06:21:43.661Z,9.77
2023-10-26T06:24:10.894Z,9.81
2023-10-26T06:26:38.104Z,9.83
2023-10-26T06:29:05.320Z,9.83
2023-10-26T06:31:32.315Z,9.90
2023-10-26T06:33:59.343Z,9.93
2023-10-26T06:36:26.344Z,9.94
2023-10-26T06:38:55.619Z,9.96
2023-10-26T06:41:23.034Z,9.96
2023-10-26T06:43:49.997Z,9.96
2023-10-26T06:46:17.277Z,10.01
2023-10-26T06:48:44.363Z,10.01
2023-10-26T06:51:11.383Z,10.04
2023-10-26T06:53:38.364Z,10.08
2023-10-26T06:56:14.652Z,10.08
2023-10-26T06:58:43.798Z,10.14
2023-10-26T07:01:24.437Z,10.16
2023-10-26T07:03:52.606Z,10.21
2023-10-26T07:06:20.645Z,10.24
2023-10-26T07:08:50.305Z,10.22
2023-10-26T07:11:21.023Z,10.29
2023-10-26T07:13:48.276Z,10.32
2023-10-26T07:16:15.261Z,10.29
2023-10-26T07:18:42.413Z,10.39
2023-10-26T07:21:09.563Z,10.38
2023-10-26T07:23:37.096Z,10.44
2023-10-26T07:26:04.736Z,10.44
2023-10-26T07:28:31.761Z,10.46
2023-10-26T07:30:58.719Z,10.45
2023-10-26T07:33:26.335Z,10.47
2023-10-26T07:35:57.572Z,10.53
2023-10-26T07:38:36.777Z,10.54
2023-10-26T07:41:06.923Z,10.56
2023-10-26T07:43:35.438Z,10.54
2023-10-26T07:46:03.165Z,10.60
2023-10-26T07:48:32.366Z,10.61
2023-10-26T07:50:59.552Z,10.64
2023-10-26T07:53:29.605Z,10.66
2023-10-26T07:55:59.213Z,10.62
2023-10-26T07:58:31.604Z,10.69
2023-10-26T08:00:58.635Z,10.74
2023-10-26T08:03:25.859Z,10.78
2023-10-26T08:06:02.110Z,10.78
2023-10-26T08:08:29.260Z,10.83
2023-10-26T08:10:57.777Z,10.86
2023-10-26T08:13:24.807Z,10.90
2023-10-26T08:16:08.690Z,10.93
2023-10-26T08:18:39.558Z,10.92
2023-10-26T08:21:06.888Z,10.91
2023-10-26T08:23:34.459Z,10.97
2023-10-26T08:26:11.442Z,11.03
2023-10-26T08:28:38.634Z,11.05
2023-10-26T08:31:08.040Z,11.07
2023-10-26T08:33:35.671Z,11.08
2023-10-26T08:36:05.467Z,11.10
2023-10-26T08:38:34.228Z,11.18
2023-10-26T08:41:01.612Z,11.19
2023-10-26T08:43:30.154Z,11.22
2023-10-26T08:46:01.586Z,11.28
2023-10-26T08:48:31.695Z,11.37
2023-10-26T08:50:58.940Z,11.39
2023-10-26T08:53:26.060Z,11.43
2023-10-26T08:55:57.567Z,11.49
2023-10-26T08:58:24.782Z,11.52
2023-10-26T09:00:53.528Z,11.44
2023-10-26T09:03:23.193Z,11.53
2023-10-26T09:05:57.656Z,11.53
2023-10-26T09:08:27.892Z,11.52
2023-10-26T09:10:55.058Z,11.53
2023-10-26T09:13:29.356Z,11.58
2023-10-26T09:15:59.383Z,11.48
2023-10-26T09:18:29.578Z,11.59
2023-10-26T09:21:08.497Z,11.68
2023-10-26T09:23:38.716Z,11.77
2023-10-26T09:26:11.608Z,11.78
2023-10-26T09:28:55.446Z,11.83
2023-10-26T09:31:26.500Z,11.89
2023-10-26T09:33:53.613Z,11.92
2023-10-26T09:36:21.990Z,12.01
2023-10-26T09:38:49.315Z,12.06
2023-10-26T09:41:18.316Z,12.05
2023-10-26T09:43:45.455Z,12.06
2023-10-26T09:46:15.580Z,12.18
2023-10-26T09:48:42.795Z,12.17
2023-10-26T09:51:12.183Z,12.29
2023-10-26T09:53:43.561Z,12.22
2023-10-26T09:56:21.682Z,12.33
2023-10-26T09:58:49.574Z,12.39
2023-10-26T10:01:41.238Z,12.56
2023-10-26T10:04:11.939Z,12.66
2023-10-26T10:06:55.905Z,12.72
2023-10-26T10:09:25.227Z,12.77
2023-10-26T10:12:07.308Z,12.87
2023-10-26T10:15:22.593Z,13.00
2023-10-26T10:17:50.389Z,13.10
2023-10-26T10:20:20.161Z,13.25
2023-10-26T10:22:49.084Z,13.35
2023-10-26T10:25:19.707Z,13.40
2023-10-26T10:27:49.781Z,13.50
2023-10-26T10:30:22.837Z,13.51
2023-10-26T10:32:51.941Z,13.46
2023-10-26T10:35:22.182Z,13.52
2023-10-26T10:38:20.394Z,13.59
2023-10-26T10:40:56.461Z,13.59
2023-10-26T10:43:42.050Z,13.66
2023-10-26T10:46:14.870Z,13.80
2023-10-26T10:49:01.035Z,13.97
2023-10-26T10:51:39.787Z,14.09
2023-10-26T10:56:50.693Z,14.33
2023-10-26T10:59:27.825Z,14.51
2023-10-26T11:02:14.978Z,14.63
2023-10-26T11:05:02.304Z,14.79
2023-10-26T11:07:36.673Z,14.94
2023-10-26T11:10:04.783Z,15.04
2023-10-26T11:12:32.091Z,15.17
2023-10-26T11:14:59.880Z,15.24
2023-10-26T11:17:29.180Z,15.41
2023-10-26T11:19:57.148Z,15.49
2023-10-26T11:22:24.575Z,15.60
2023-10-26T11:24:51.867Z,15.68
2023-10-26T11:27:23.477Z,15.82
2023-10-26T11:30:06.720Z,16.00
2023-10-26T11:32:34.265Z,16.09
2023-10-26T11:35:17.582Z,16.26
2023-10-26T11:37:49.895Z,16.35
2023-10-26T11:40:18.056Z,16.52
2023-10-26T11:42:58.091Z,16.52
2023-10-26T11:45:27.350Z,16.74
2023-10-26T11:47:59.575Z,16.85
2023-10-26T11:50:33.521Z,16.94
2023-10-26T11:53:02.812Z,16.97
2023-10-26T11:55:35.707Z,16.98
2023-10-26T11:58:04.334Z,16.99
2023-10-26T12:00:32.307Z,17.00
2023-10-26T12:03:00.387Z,17.02
2023-10-26T12:05:28.812Z,17.22
2023-10-26T12:07:56.461Z,17.37
2023-10-26T12:10:25.138Z,17.57
2023-10-26T12:12:53.106Z,17.68
2023-10-26T12:15:24.080Z,17.82
2023-10-26T12:17:51.906Z,17.94
2023-10-26T12:20:19.748Z,17.94
2023-10-26T12:22:48.805Z,17.90
2023-10-26T12:25:15.960Z,17.89
2023-10-26T12:28:21.296Z,18.03
2023-10-26T12:30:30.134Z,18.18
2023-10-26T12:32:57.195Z,18.34
2023-10-26T12:35:24.815Z,18.43
2023-10-26T12:37:52.651Z,18.24
2023-10-26T12:40:21.765Z,18.06
2023-10-26T12:42:49.134Z,17.94
2023-10-26T12:45:18.935Z,17.85
2023-10-26T12:47:46.385Z,17.70
2023-10-26T12:50:13.705Z,17.58
2023-10-26T12:52:40.902Z,17.63
2023-10-26T12:55:08.368Z,17.66
2023-10-26T12:57:35.361Z,17.67
2023-10-26T13:00:02.528Z,17.67
2023-10-26T13:02:29.834Z,17.58
2023-10-26T13:04:56.964Z,17.52
2023-10-26T13:07:24.100Z,17.49
2023-10-26T13:09:51.167Z,17.44
2023-10-26T13:12:18.167Z,17.27
2023-10-26T13:14:45.291Z,17.25
2023-10-26T13:17:15.064Z,17.18
2023-10-26T13:19:42.095Z,17.10
2023-10-26T13:22:09.690Z,17.13
2023-10-26T13:24:36.674Z,17.12
2023-10-26T13:27:03.986Z,17.08
2023-10-26T13:29:30.969Z,17.05
2023-10-26T13:31:59.094Z,16.87
2023-10-26T13:34:26.061Z,16.81
2023-10-26T13:36:53.208Z,16.84
2023-10-26T13:39:22.593Z,16.83
2023-10-26T13:41:49.651Z,16.63
2023-10-26T13:44:16.656Z,16.68
2023-10-26T13:46:43.885Z,16.66
2023-10-26T13:49:12.881Z,16.57
2023-10-26T13:51:39.998Z,16.53
2023-10-26T13:54:07.457Z,16.43
2023-10-26T13:56:35.134Z,16.39
2023-10-26T13:59:02.551Z,16.37
2023-10-26T14:01:29.763Z,16.38
2023-10-26T14:03:56.772Z,16.38
2023-10-26T14:06:27.233Z,16.32
2023-10-26T14:08:59.478Z,16.31
2023-10-26T14:11:28.117Z,16.27
2023-10-26T14:13:55.268Z,16.26
2023-10-26T14:16:22.401Z,16.29
2023-10-26T14:18:49.937Z,16.27
2023-10-26T14:21:18.094Z,16.18
2023-10-26T14:23:45.413Z,16.21
2023-10-26T14:26:12.502Z,16.16
2023-10-26T14:28:39.536Z,16.10
2023-10-26T14:31:06.596Z,16.05
2023-10-26T14:33:33.642Z,15.92
2023-10-26T14:36:00.656Z,15.90
2023-10-26T14:38:27.632Z,15.86
2023-10-26T14:40:59.369Z,15.71
2023-10-26T14:43:28.456Z,15.65
2023-10-26T14:45:55.627Z,15.52
2023-10-26T14:48:22.669Z,15.45
2023-10-26T14:50:49.925Z,15.37
2023-10-26T14:53:16.911Z,15.29
2023-10-26T14:55:43.961Z,15.23
2023-10-26T14:58:11.104Z,14.95
2023-10-26T15:00:39.758Z,14.81
2023-10-26T15:03:07.612Z,14.86
2023-10-26T15:05:35.913Z,14.94
2023-10-26T15:08:04.167Z,15.00
2023-10-26T15:10:35.866Z,14.98
2023-10-26T15:13:06.143Z,14.98
2023-10-26T15:15:33.296Z,14.96
2023-10-26T15:18:00.445Z,15.00
2023-10-26T15:20:27.418Z,14.95
2023-10-26T15:22:54.396Z,14.95
2023-10-26T15:25:21.556Z,14.87
2023-10-26T15:27:48.601Z,14.91
2023-10-26T15:30:15.716Z,14.86
2023-10-26T15:32:42.753Z,14.79
2023-10-26T15:35:09.721Z,14.80
2023-10-26T15:37:38.087Z,14.79
2023-10-26T15:40:06.490Z,14.72
2023-10-26T15:42:33.668Z,14.73
2023-10-26T15:45:00.810Z,14.69
2023-10-26T15:47:27.861Z,14.65
2023-10-26T15:49:59.347Z,14.64
2023-10-26T15:52:26.653Z,14.61
2023-10-26T15:54:53.634Z,14.52
2023-10-26T15:57:20.673Z,14.48
2023-10-26T15:59:47.734Z,14.46
2023-10-26T16:02:14.795Z,14.39
2023-10-26T16:04:41.881Z,14.32
2023-10-26T16:07:08.951Z,14.34
2023-10-26T16:09:37.553Z,14.24
2023-10-26T16:12:05.518Z,14.25
2023-10-26T16:14:32.478Z,14.20
2023-10-26T16:16:59.478Z,14.16
2023-10-26T16:19:28.471Z,14.07
2023-10-26T16:21:55.761Z,13.97
2023-10-26T16:24:22.814Z,13.99
2023-10-26T16:26:49.792Z,13.95
2023-10-26T16:29:16.904Z,13.89
2023-10-26T16:31:43.901Z,13.84
2023-10-26T16:34:10.915Z,13.85
2023-10-26T16:36:37.968Z,13.78
2023-10-26T16:39:05.677Z,13.73
2023-10-26T16:41:32.673Z,13.70
2023-10-26T16:43:59.636Z,13.66
2023-10-26T16:46:26.744Z,13.68
2023-10-26T16:48:53.800Z,13.65
2023-10-26T16:51:21.011Z,13.59
2023-10-26T16:53:48.050Z,13.52
2023-10-26T16:56:14.996Z,13.48
2023-10-26T16:58:41.972Z,13.41
2023-10-26T17:01:13.674Z,13.40
2023-10-26T17:03:40.799Z,13.38
2023-10-26T17:06:10.279Z,13.31
2023-10-26T17:08:37.508Z,13.28
2023-10-26T17:11:04.722Z,13.28
2023-10-26T17:13:31.820Z,13.27
2023-10-26T17:15:58.890Z,13.23
2023-10-26T17:18:26.037Z,13.19
2023-10-26T17:20:58.058Z,13.13
2023-10-26T17:23:28.732Z,13.13
2023-10-26T17:25:55.675Z,13.15
2023-10-26T17:28:22.670Z,13.06
2023-10-26T17:30:49.903Z,13.05
2023-10-26T17:33:17.002Z,13.01
2023-10-26T17:35:49.217Z,12.93
2023-10-26T17:38:16.475Z,12.92
2023-10-26T17:40:46.118Z,12.92
2023-10-26T17:43:14.478Z,12.88
2023-10-26T17:45:41.651Z,12.83
2023-10-26T17:48:10.998Z,12.86
2023-10-26T17:50:41.867Z,12.77
2023-10-26T17:53:09.337Z,12.77
2023-10-26T17:55:36.371Z,12.76
2023-10-26T17:58:03.524Z,12.67
2023-10-26T18:00:30.655Z,12.66
2023-10-26T18:02:57.675Z,12.68
2023-10-26T18:05:24.800Z,12.62
2023-10-26T18:07:51.760Z,12.63
2023-10-26T18:10:21.117Z,12.62
2023-10-26T18:12:48.813Z,12.60
2023-10-26T18:15:15.936Z,12.58
2023-10-26T18:17:43.022Z,12.52
2023-10-26T18:20:10.657Z,12.53
2023-10-26T18:22:37.655Z,12.51
2023-10-26T18:25:05.221Z,12.46
2023-10-26T18:27:32.720Z,12.41
2023-10-26T18:29:59.741Z,12.41
2023-10-26T18:32:26.855Z,12.36
2023-10-26T18:34:53.854Z,12.41
2023-10-26T18:37:22.310Z,12.36
2023-10-26T18:39:49.959Z,12.35
2023-10-26T18:42:17.068Z,12.29
2023-10-26T18:44:44.031Z,12.33
2023-10-26T18:47:11.810Z,12.30
2023-10-26T18:49:39.852Z,12.27
2023-10-26T18:52:07.186Z,12.31
2023-10-26T18:54:35.247Z,12.24
2023-10-26T18:57:04.698Z,12.20
2023-10-26T18:59:31.894Z,12.02
2023-10-26T19:02:00.144Z,12.16
2023-10-26T19:04:27.304Z,12.19
2023-10-26T19:06:55.139Z,12.15
2023-10-26T19:09:22.140Z,12.14
2023-10-26T19:11:49.110Z,12.10
2023-10-26T19:14:16.072Z,12.08
2023-10-26T19:16:43.390Z,12.00
2023-10-26T19:19:10.581Z,11.96
2023-10-26T19:21:37.733Z,11.91
2023-10-26T19:24:05.220Z,11.86
2023-10-26T19:26:32.202Z,11.86
2023-10-26T19:28:59.220Z,11.85
2023-10-26T19:31:27.472Z,11.84
2023-10-26T19:33:54.618Z,11.85
2023-10-26T19:36:21.613Z,11.85
2023-10-26T19:38:49.781Z,11.87
2023-10-26T19:41:22.378Z,11.75
2023-10-26T19:43:54.350Z,11.77
2023-10-26T19:46:25.925Z,11.71
2023-10-26T19:48:53.013Z,11.69
2023-10-26T19:51:21.284Z,11.72
2023-10-26T19:53:51.713Z,11.77
2023-10-26T19:56:19.809Z,11.71
2023-10-26T19:58:47.495Z,11.72
2023-10-26T20:01:14.716Z,11.70
2023-10-26T20:03:42.273Z,11.72
2023-10-26T20:06:09.400Z,11.68
2023-10-26T20:08:37.226Z,11.64
2023-10-26T20:11:05.848Z,11.66
2023-10-26T20:13:32.943Z,11.65
2023-10-26T20:15:59.955Z,11.61
2023-10-26T20:18:28.557Z,11.62
2023-10-26T20:20:55.558Z,11.59
2023-10-26T20:23:22.578Z,11.53
2023-10-26T20:25:50.495Z,11.50
2023-10-26T20:28:17.519Z,11.33
2023-10-26T20:30:44.637Z,11.30
2023-10-26T20:33:11.650Z,11.28
2023-10-26T20:35:38.667Z,11.32
2023-10-26T20:38:05.705Z,11.31
2023-10-26T20:40:33.075Z,11.24
2023-10-26T20:43:02.390Z,11.32
2023-10-26T20:45:29.410Z,11.33
2023-10-26T20:47:56.400Z,11.32
2023-10-26T20:50:23.605Z,11.30
2023-10-26T20:52:53.591Z,11.33
2023-10-26T20:55:20.713Z,11.29
2023-10-26T20:57:47.798Z,11.31
2023-10-26T21:00:15.572Z,11.31
2023-10-26T21:02:43.461Z,11.27
2023-10-26T21:05:10.539Z,11.30
2023-10-26T21:07:38.620Z,11.28
2023-10-26T21:10:06.556Z,11.25
2023-10-26T21:12:33.798Z,11.25
2023-10-26T21:15:00.799Z,11.26
2023-10-26T21:17:30.205Z,11.25
2023-10-26T21:19:57.321Z,11.23
2023-10-26T21:22:24.524Z,11.19
2023-10-26T21:24:51.577Z,11.19
2023-10-26T21:27:19.240Z,11.16
2023-10-26T21:29:46.233Z,11.18
2023-10-26T21:32:13.267Z,11.19
2023-10-26T21:34:40.321Z,11.16
2023-10-26T21:37:08.367Z,11.13
2023-10-26T21:39:35.362Z,11.20
2023-10-26T21:42:04.316Z,11.19
2023-10-26T21:44:31.312Z,11.13
2023-10-26T21:46:58.378Z,11.12
2023-10-26T21:49:25.419Z,11.13
2023-10-26T21:51:52.390Z,11.10
2023-10-26T21:54:19.392Z,11.09
2023-10-26T21:56:46.437Z,11.10
2023-10-26T21:59:13.450Z,11.10
2023-10-26T22:01:40.537Z,11.05
2023-10-26T22:04:21.521Z,11.08
2023-10-26T22:06:49.268Z,11.05
2023-10-26T22:09:18.314Z,11.02
2023-10-26T22:11:45.534Z,10.99
2023-10-26T22:14:12.512Z,10.99
2023-10-26T22:16:41.213Z,10.95
2023-10-26T22:19:08.364Z,10.91
2023-10-26T22:21:35.421Z,10.86
2023-10-26T22:24:02.989Z,10.86
2023-10-26T22:26:30.131Z,10.87
2023-10-26T22:28:57.096Z,10.88
2023-10-26T22:31:24.107Z,10.84
2023-10-26T22:33:51.158Z,10.86
2023-10-26T22:36:18.234Z,10.87
2023-10-26T22:38:46.047Z,10.84
2023-10-26T22:41:13.292Z,10.86
2023-10-26T22:43:40.329Z,10.85
2023-10-26T22:46:07.885Z,10.80
2023-10-26T22:48:34.960Z,10.79
2023-10-26T22:51:02.127Z,10.80
2023-10-26T22:53:29.143Z,10.79
2023-10-26T22:55:56.095Z,10.70
2023-10-26T22:58:23.216Z,10.68
2023-10-26T23:00:50.248Z,10.71
2023-10-26T23:03:17.346Z,10.69
2023-10-26T23:05:44.519Z,10.75
2023-10-26T23:08:12.542Z,10.73
2023-10-26T23:10:39.503Z,10.68
2023-10-26T23:13:06.511Z,10.66
2023-10-26T23:15:33.511Z,10.61
2023-10-26T23:18:00.511Z,10.64
2023-10-26T23:20:27.717Z,10.59
2023-10-26T23:22:54.674Z,10.63
2023-10-26T23:25:21.894Z,10.59
2023-10-26T23:27:50.579Z,10.55
2023-10-26T23:30:17.635Z,10.60
2023-10-26T23:32:44.656Z,10.62
2023-10-26T23:35:11.670Z,10.62
2023-10-26T23:37:38.674Z,10.60
2023-10-26T23:40:07.469Z,10.63
2023-10-26T23:42:34.937Z,10.63
2023-10-26T23:45:01.909Z,10.60
2023-10-26T23:47:29.369Z,10.53
2023-10-26T23:49:57.044Z,10.51
2023-10-26T23:52:24.047Z,10.55
2023-10-26T23:54:51.611Z,10.51
2023-10-26T23:57:19.758Z,10.48
2023-10-26T23:59:46.767Z,10.48
